Weather reports worldwide

Advertisment
Rodkallen, Sweden (2188): temperature & dewpoint: 15.05.2019 05:00:00 - 21.05.2019 05:00:00 (CEST)Rodkallen, Sweden (2188): wind speed & gusts: 15.05.2019 05:00:00 - 21.05.2019 05:00:00 (CEST)Rodkallen, Sweden (2188): wind direction: 15.05.2019 05:00:00 - 21.05.2019 05:00:00 (CEST)Rodkallen, Sweden (2188): visibility: 15.05.2019 05:00:00 - 21.05.2019 05:00:00 (CEST)Rodkallen, Sweden (2188): precipitation: 15.05.2019 05:00:00 - 21.05.2019 05:00:00 (CEST)
Date & Time tt [°C] td [°C] ff [km/h] ff [kn] fx [km/h] fx [kn] dd vv [km] rr [mm]
21.05.2019 05:00:00 9,8 9,4 16 9 22 12 N 9 0,0
21.05.2019 04:00:00 9,6 9,3 17 9 22 12 N 6 0,0
21.05.2019 03:00:00 9,9 9,4 16 8 22 12 N 11 0,0
21.05.2019 02:00:00 10,2 9,7 16 9 23 12 NNE 17 0,0
21.05.2019 01:00:00 10,2 9,7 19 10 29 16 NNE 17 0,0
21.05.2019 00:00:00 10,6 10,3 23 13 27 15 NNE 9 0,0
20.05.2019 23:00:00 10,3 10,0 22 12 26 14 NNE 7 0,0
20.05.2019 22:00:00 9,6 9,1 20 11 24 13 NE 8 0,0
20.05.2019 21:00:00 9,6 9,0 20 11 25 13 NNE 11 0,0
20.05.2019 20:00:00 9,5 8,9 22 12 26 14 ENE 21 0,0
20.05.2019 19:00:00 9,5 8,9 21 12 27 15 ENE 14 0,0
20.05.2019 18:00:00 9,9 8,7 19 10 24 13 NE 29 0,0
20.05.2019 17:00:00 9,6 8,2 18 10 22 12 ENE 35 0,0
20.05.2019 16:00:00 10,6 9,0 17 9 20 11 ENE 25 0,0
20.05.2019 15:00:00 9,7 8,5 14 7 18 10 ENE 32 0,0
20.05.2019 14:00:00 9,9 7,1 15 8 19 10 E 45 0,0
20.05.2019 13:00:00 10,1 6,3 8 5 19 11 ESE 50 0,0
20.05.2019 12:00:00 9,7 6,2 12 6 17 9 ESE 45 0,0
20.05.2019 11:00:00 9,0 6,6 11 6 16 9 SE 47 0,0
20.05.2019 10:00:00 11,0 7,7 6 3 16 9 SE 45 0,0
20.05.2019 09:00:00 9,7 7,8 6 3 13 7 E 47 0,0
20.05.2019 08:00:00 8,5 7,3 13 7 21 11 SSE 50 0,0
20.05.2019 07:00:00 8,8 7,9 11 6 14 8 SSW 37 1,3
20.05.2019 06:00:00 10,2 8,0 4 2 16 9 S 48 0,0
20.05.2019 05:00:00 10,9 8,1 16 9 18 10 N 46 0,0
20.05.2019 04:00:00 11,2 8,2 8 5 16 9 SE 50 0,7
20.05.2019 03:00:00 10,7 7,8 3 1 16 9 S 45 0,2
20.05.2019 02:00:00 10,1 5,7 6 4 9 5 SSW 50 0,0
20.05.2019 01:00:00 9,6 6,1 0 0 4 2 N 50 0,0
20.05.2019 00:00:00 9,9 6,8 0 0 4 2 N 50 0,0
19.05.2019 23:00:00 9,4 6,7 2 1 9 5 SSE 50 0,0
19.05.2019 22:00:00 9,9 6,4 8 4 13 7 ENE 50 0,0
19.05.2019 21:00:00 9,8 6,9 10 5 13 7 NE 50 0,0
19.05.2019 20:00:00 10,3 6,6 8 4 10 5 ENE 47 0,0
19.05.2019 19:00:00 11,2 5,9 5 3 11 6 ENE 50 0,0
19.05.2019 18:00:00 10,7 5,7 9 5 13 7 ENE 49 0,0
19.05.2019 17:00:00 10,3 5,3 10 6 15 8 NE 48 0,0
19.05.2019 16:00:00 9,6 6,1 10 5 17 9 NE 41 0,0
19.05.2019 15:00:00 9,4 5,8 11 6 16 9 ENE 41 0,0
19.05.2019 14:00:00 8,5 6,0 15 8 20 11 ENE 44 0,0
19.05.2019 13:00:00 8,9 6,2 13 7 16 8 ENE 49 0,0
19.05.2019 12:00:00 9,1 5,3 10 6 15 8 E 44 0,0
19.05.2019 11:00:00 9,7 4,3 11 6 15 8 SE 47 0,0
19.05.2019 10:00:00 9,1 4,5 9 5 13 7 SE 45 0,0
19.05.2019 09:00:00 8,2 4,4 7 4 11 6 ESE 40 0,0
19.05.2019 08:00:00 8,2 4,8 7 4 13 7 SE 46 0,0
19.05.2019 07:00:00 7,8 5,1 12 7 15 8 SSE 43 0,0
19.05.2019 06:00:00 7,0 4,8 12 7 19 11 SE 50 0,0
19.05.2019 05:00:00 6,6 4,6 17 9 21 11 SE 48 0,0
19.05.2019 04:00:00 6,8 4,6 14 8 20 11 SE 50 0,0
19.05.2019 03:00:00 6,4 4,2 16 9 20 11 SE 50 0,0
19.05.2019 02:00:00 6,7 4,0 15 8 19 10 SE 50 0,0
19.05.2019 01:00:00 6,8 4,3 13 7 17 9 SE 50 0,0
19.05.2019 00:00:00 6,8 4,6 13 7 16 9 SE 50 0,0
18.05.2019 23:00:00 6,6 4,1 12 6 16 9 ESE 50 0,0
18.05.2019 22:00:00 7,9 4,3 9 5 16 9 E 50 0,0
18.05.2019 21:00:00 8,9 3,9 8 4 16 8 SE 50 0,0
18.05.2019 20:00:00 8,5 4,3 13 7 21 11 S 50 0,0
18.05.2019 19:00:00 8,7 4,3 15 8 20 11 S 48 0,0
18.05.2019 18:00:00 8,8 4,6 11 6 20 11 SSE 43 0,0
18.05.2019 17:00:00 9,4 4,8 17 9 23 13 S 43 0,0
18.05.2019 16:00:00 9,4 4,8 17 9 24 13 S 39 0,0
18.05.2019 15:00:00 9,0 4,4 18 10 27 14 SSE 39 0,0
18.05.2019 14:00:00 9,0 4,2 21 12 27 14 SSE 45 0,0
18.05.2019 13:00:00 9,5 4,3 22 12 27 14 S 39 0,0
18.05.2019 12:00:00 9,5 4,3 20 11 24 13 S 49 0,0
18.05.2019 11:00:00 9,5 4,9 19 10 24 13 S 50 0,0
18.05.2019 10:00:00 9,3 5,1 18 10 21 12 S 50 0,0
18.05.2019 09:00:00 8,5 5,2 18 10 22 12 S 50 0,0
18.05.2019 08:00:00 8,1 5,2 19 11 24 13 S 50 0,0
18.05.2019 07:00:00 7,8 5,4 14 7 16 9 SSW 50 0,0
18.05.2019 06:00:00 7,5 5,3 11 6 15 8 SSW 48 0,0
18.05.2019 05:00:00 7,3 5,4 13 7 15 8 S 50 0,0
18.05.2019 04:00:00 7,0 5,3 8 4 16 9 SSE 50 0,0
18.05.2019 03:00:00 7,2 5,3 13 7 16 9 SW 50 0,0
18.05.2019 02:00:00 7,1 5,1 12 7 14 7 SW 50 0,0
18.05.2019 01:00:00 7,4 5,0 12 7 16 9 SW 50 0,0
18.05.2019 00:00:00 7,4 5,0 13 7 18 10 SW 50 0,0
17.05.2019 23:00:00 7,4 4,9 15 8 21 11 SW 50 0,0
17.05.2019 22:00:00 7,7 4,5 18 10 21 11 SW 50 0,0
17.05.2019 21:00:00 7,8 4,7 15 8 22 12 SW 50 0,0
17.05.2019 20:00:00 7,7 4,5 19 11 23 12 SW 50 0,0
17.05.2019 19:00:00 8,3 5,1 14 8 21 11 SSW 50 0,0
17.05.2019 18:00:00 8,3 4,7 16 9 19 10 SSW 50 0,0
17.05.2019 17:00:00 8,7 4,5 17 9 21 12 S 50 0,0
17.05.2019 16:00:00 9,5 5,1 17 9 20 11 S 35 0,0
17.05.2019 15:00:00 9,2 4,6 14 7 16 9 SSE 45 0,0
17.05.2019 14:00:00 10,3 5,1 15 8 19 10 S 47 0,0
17.05.2019 13:00:00 10,3 5,1 11 6 14 8 S 43 0,0
17.05.2019 12:00:00 9,2 5,2 12 7 13 7 S 47 0,0
17.05.2019 11:00:00 10,8 5,8 7 4 10 5 SSE 45 0,0
17.05.2019 10:00:00 11,6 2,6 8 4 13 7 N 49 0,0
17.05.2019 09:00:00 11,1 3,4 10 5 19 11 N 50 0,0
17.05.2019 08:00:00 9,2 3,4 15 8 22 12 N 44 0,0
17.05.2019 07:00:00 8,8 4,2 18 10 22 12 N 50 0,0
17.05.2019 06:00:00 7,6 3,8 16 9 22 12 NNW 50 0,0
17.05.2019 05:00:00 7,2 3,8 12 7 19 10 NW 50 0,0
17.05.2019 04:00:00 6,7 3,8 14 8 21 12 NW 50 0,0
17.05.2019 03:00:00 6,3 3,3 10 5 16 8 NNW 50 0,0
17.05.2019 02:00:00 6,0 4,3 10 5 15 8 NW 50 0,0
17.05.2019 01:00:00 6,2 4,7 11 6 13 7 W 50 0,0
17.05.2019 00:00:00 5,9 4,4 12 6 20 11 WSW 50 0,0
16.05.2019 23:00:00 6,2 3,7 19 10 25 13 SW 50 0,0
16.05.2019 22:00:00 6,6 2,9 22 12 27 15 SSW 50 0,0
16.05.2019 21:00:00 7,2 2,3 24 13 28 15 SSW 50 0,0
16.05.2019 20:00:00 6,7 2,8 21 11 27 15 SSW 50 0,0
16.05.2019 19:00:00 6,9 3,0 15 8 22 12 S 44 0,0
16.05.2019 18:00:00 7,0 2,3 13 7 22 12 S 48 0,0
16.05.2019 17:00:00 7,8 2,7 14 8 18 10 S 39 0,0
16.05.2019 16:00:00 7,6 1,0 10 5 13 7 SSE 47 0,0
16.05.2019 15:00:00 8,3 2,7 9 5 16 9 S 49 0,0
16.05.2019 14:00:00 7,5 2,2 13 7 18 10 SSE 50 0,0
16.05.2019 13:00:00 8,6 3,2 11 6 15 8 S 36 0,0
16.05.2019 12:00:00 8,1 2,8 10 5 13 7 SSW 44 0,0
16.05.2019 11:00:00 7,7 2,2 7 4 14 8 SW 43 0,0
16.05.2019 10:00:00 8,7 0,7 7 4 16 9 W 49 0,0
16.05.2019 09:00:00 7,8 0,7 7 4 17 9 NW 46 0,0
16.05.2019 08:00:00 7,0 0,7 11 6 24 13 N 47 0,0
16.05.2019 07:00:00 6,6 0,3 17 9 24 13 NNW 50 0,0
16.05.2019 06:00:00 6,0 1,5 14 7 23 13 NW 50 0,0
16.05.2019 05:00:00 5,2 1,3 14 8 26 14 NNW 50 0,0
16.05.2019 04:00:00 4,9 0,8 19 10 29 15 NW 50 0,0
16.05.2019 03:00:00 4,9 3,4 7 4 18 10 N 50 0,0
16.05.2019 02:00:00 4,5 3,6 10 5 12 7 WNW 50 0,0
16.05.2019 01:00:00 4,3 3,0 5 3 9 5 WSW 50 0,0
16.05.2019 00:00:00 4,4 2,9 8 4 10 5 S 50 0,0
15.05.2019 23:00:00 4,7 2,6 8 5 23 12 S 50 0,0
15.05.2019 22:00:00 4,9 2,3 16 8 29 15 SSE 50 0,0
15.05.2019 21:00:00 5,4 1,1 24 13 29 16 SSE 50 0,0
15.05.2019 20:00:00 5,4 0,4 22 12 26 14 SSE 50 0,0
15.05.2019 19:00:00 5,5 0,3 17 9 21 11 SSE 50 0,0
15.05.2019 18:00:00 6,3 1,0 16 9 22 12 S 47 0,0
15.05.2019 17:00:00 6,5 1,6 14 8 22 12 S 36 0,0
15.05.2019 16:00:00 7,0 1,7 18 10 21 11 S 38 0,0
15.05.2019 15:00:00 6,8 1,5 14 8 18 10 SSE 46 0,0
15.05.2019 14:00:00 6,6 1,3 14 8 21 11 SSE 45 0,0
15.05.2019 13:00:00 7,4 1,5 14 7 17 9 SSE 39 0,0
15.05.2019 12:00:00 8,2 -1,1 10 5 12 7 SE 43 0,0
15.05.2019 11:00:00 6,7 2,0 10 5 12 6 SW 50 0,0
15.05.2019 10:00:00 7,0 1,9 7 4 11 6 W 44 0,0
15.05.2019 09:00:00 6,5 1,6 9 5 18 10 W 41 0,0
15.05.2019 08:00:00 6,4 1,1 13 7 21 11 WNW 49 0,0
15.05.2019 07:00:00 5,9 -0,2 13 7 22 12 NW 50 0,0
15.05.2019 06:00:00 4,6 0,2 16 8 20 11 WNW 50 0,0
15.05.2019 05:00:00 4,6 0,4 5 3 19 10 NNW 50 0,0

tt = temperature
td = dewpoint
ff = wind speed
fx = gusts
dd = wind direction
vv = visibility
rr = precipitation

Next stations